Taft, Iran
Current Conditions -  °F | °C
As of 3:50 AM on Monday 24 Nov 2014 (Local Time) from OIYY Reporting Station
Overcast Overcast  
Wind Chill: 50°   Ceiling: 20000
Heat Index: 50°   Visibility: 6mi
Dew Point: 30°   Wind: 2mph
Humidity: 47%   Direction: 260°W
Pressure: 30.06"   Gusts: NA
Location:  31.73°N, 54.22°E
Report Text: OIYY 232350Z 26002KT 9999 FEW100 OVC200 10/M01 Q1018
Loading
Personal Weather Stations






























Interactive Weather Map New forecast layout! Learn more

10-Day Weather Forecast

Advertisements
Track Severe Weather on mobile